createdAt,value
2019-02-27T00:01:49.926Z,134.10
2019-02-27T00:04:52.517Z,112.97
2019-02-27T00:07:55.000Z,138.53
2019-02-27T00:10:57.258Z,118.50
2019-02-27T00:13:59.134Z,128.87
2019-02-27T00:17:01.051Z,122.13
2019-02-27T00:20:05.454Z,124.20
2019-02-27T00:23:08.662Z,108.83
2019-02-27T00:26:10.570Z,120.90
2019-02-27T00:29:12.482Z,111.40
2019-02-27T00:32:15.754Z,131.77
2019-02-27T00:35:19.325Z,143.63
2019-02-27T00:38:22.744Z,134.73
2019-02-27T00:41:25.139Z,140.37
2019-02-27T00:44:27.097Z,134.00
2019-02-27T00:47:29.112Z,134.30
2019-02-27T00:50:31.017Z,135.97
2019-02-27T00:53:32.905Z,136.33
2019-02-27T00:56:34.801Z,130.03
2019-02-27T00:59:36.776Z,128.87
2019-02-27T01:02:38.664Z,130.53
2019-02-27T01:05:41.128Z,132.93
2019-02-27T01:08:43.945Z,135.90
2019-02-27T01:11:46.010Z,148.50
2019-02-27T01:14:47.897Z,139.90
2019-02-27T01:17:49.819Z,141.90
2019-02-27T01:20:51.744Z,136.20
2019-02-27T01:23:54.113Z,140.43
2019-02-27T01:26:56.014Z,137.70
2019-02-27T01:29:58.350Z,127.90
2019-02-27T01:33:03.935Z,132.70
2019-02-27T01:36:03.970Z,129.80
2019-02-27T01:39:09.051Z,131.77
2019-02-27T01:42:10.989Z,124.27
2019-02-27T01:45:14.388Z,130.57
2019-02-27T01:48:16.317Z,135.70
2019-02-27T01:51:18.303Z,131.43
2019-02-27T01:54:20.240Z,125.20
2019-02-27T01:57:22.157Z,139.07
2019-02-27T02:00:24.102Z,137.87
2019-02-27T02:03:25.974Z,148.17
2019-02-27T02:06:31.944Z,142.10
2019-02-27T02:09:33.801Z,130.87
2019-02-27T02:12:35.747Z,150.40
2019-02-27T02:15:50.222Z,128.80
2019-02-27T02:19:12.310Z,142.97
2019-02-27T02:22:26.683Z,157.10
2019-02-27T02:25:41.500Z,136.07
2019-02-27T02:29:03.777Z,145.63
2019-02-27T02:32:27.378Z,152.27
2019-02-27T02:35:35.715Z,147.10
2019-02-27T02:38:47.258Z,155.43
2019-02-27T02:42:24.273Z,151.90
2019-02-27T02:45:58.304Z,151.37
2019-02-27T02:49:07.850Z,138.20
2019-02-27T02:52:14.265Z,151.07
2019-02-27T02:55:22.901Z,147.97
2019-02-27T02:58:37.645Z,153.37
2019-02-27T03:01:49.377Z,146.30
2019-02-27T03:04:56.066Z,146.43
2019-02-27T03:08:04.496Z,154.23
2019-02-27T03:11:19.020Z,140.93
2019-02-27T03:14:25.945Z,148.40
2019-02-27T03:18:02.255Z,136.27
2019-02-27T03:21:16.617Z,146.50
2019-02-27T03:24:28.216Z,160.43
2019-02-27T03:27:39.978Z,153.07
2019-02-27T03:30:48.390Z,157.77
2019-02-27T03:33:54.051Z,157.80
2019-02-27T03:37:02.196Z,144.50
2019-02-27T03:40:11.808Z,164.67
2019-02-27T03:43:17.569Z,193.27
2019-02-27T03:46:31.865Z,161.60
2019-02-27T03:50:01.709Z,136.20
2019-02-27T03:53:28.500Z,144.23
2019-02-27T03:56:46.116Z,164.30
2019-02-27T04:00:00.579Z,154.03
2019-02-27T04:03:09.062Z,151.03
2019-02-27T04:06:21.173Z,150.90
2019-02-27T04:09:21.459Z,147.37
2019-02-27T04:12:23.566Z,151.40
2019-02-27T04:15:25.512Z,143.57
2019-02-27T04:18:28.431Z,147.77
2019-02-27T04:21:30.604Z,170.37
2019-02-27T04:24:32.540Z,169.83
2019-02-27T04:27:34.660Z,188.00
2019-02-27T04:30:36.572Z,163.33
2019-02-27T04:33:38.495Z,189.23
2019-02-27T04:36:40.368Z,153.60
2019-02-27T04:39:42.310Z,171.93
2019-02-27T04:42:44.218Z,166.83
2019-02-27T04:45:46.779Z,145.70
2019-02-27T04:48:49.821Z,176.67
2019-02-27T04:51:51.757Z,160.47
2019-02-27T04:54:53.715Z,156.43
2019-02-27T04:57:55.612Z,178.80
2019-02-27T05:00:59.349Z,244.10
2019-02-27T05:04:02.174Z,359.83
2019-02-27T05:07:04.359Z,311.97
2019-02-27T05:10:07.961Z,414.83
2019-02-27T05:13:09.971Z,714.17
2019-02-27T05:16:14.117Z,418.00
2019-02-27T05:19:15.688Z,604.83
2019-02-27T05:22:17.621Z,551.43
2019-02-27T05:25:19.486Z,483.07
2019-02-27T05:28:21.430Z,603.83
2019-02-27T05:31:23.342Z,575.17
2019-02-27T05:34:25.320Z,466.97
2019-02-27T05:37:27.295Z,523.90
2019-02-27T05:40:29.875Z,697.90
2019-02-27T05:43:31.741Z,518.53
2019-02-27T05:46:37.985Z,706.40
2019-02-27T05:49:37.646Z,541.80
2019-02-27T05:52:39.643Z,714.90
2019-02-27T05:55:41.595Z,728.50
2019-02-27T05:58:43.498Z,671.33
2019-02-27T06:01:45.443Z,613.87
2019-02-27T06:04:47.358Z,604.53
2019-02-27T06:07:49.510Z,724.87
2019-02-27T06:10:55.004Z,599.97
2019-02-27T06:13:55.694Z,758.60
2019-02-27T06:16:57.570Z,584.53
2019-02-27T06:19:59.490Z,580.93
2019-02-27T06:23:04.104Z,652.43
2019-02-27T06:26:05.316Z,562.17
2019-02-27T06:29:07.251Z,547.70
2019-02-27T06:32:11.915Z,665.33
2019-02-27T06:35:14.277Z,660.50
2019-02-27T06:38:16.171Z,667.93
2019-02-27T06:41:18.303Z,502.27
2019-02-27T06:44:20.397Z,589.40
2019-02-27T06:47:22.320Z,714.73
2019-02-27T06:50:25.454Z,685.87
2019-02-27T06:53:28.285Z,495.50
2019-02-27T06:56:30.260Z,604.67
2019-02-27T06:59:32.084Z,717.50
2019-02-27T07:02:34.182Z,650.67
2019-02-27T07:05:36.103Z,380.17
2019-02-27T07:08:38.715Z,547.30
2019-02-27T07:11:44.885Z,493.50
2019-02-27T07:14:44.876Z,431.37
2019-02-27T07:17:46.905Z,577.47
2019-02-27T07:20:48.896Z,312.97
2019-02-27T07:23:50.839Z,500.93
2019-02-27T07:26:54.377Z,526.83
2019-02-27T07:29:56.304Z,427.10
2019-02-27T07:32:58.238Z,400.57
2019-02-27T07:36:03.310Z,428.10
2019-02-27T07:39:04.990Z,488.60
2019-02-27T07:42:08.561Z,377.73
2019-02-27T07:45:18.808Z,525.43
2019-02-27T07:48:20.887Z,444.07
2019-02-27T07:51:23.366Z,435.27
2019-02-27T07:54:28.801Z,278.87
2019-02-27T07:57:29.742Z,394.63
2019-02-27T08:00:31.684Z,340.40
2019-02-27T08:03:33.661Z,411.03
2019-02-27T08:06:37.736Z,428.97
2019-02-27T08:09:39.520Z,440.17
2019-02-27T08:12:41.436Z,295.30
2019-02-27T08:15:43.387Z,251.30
2019-02-27T08:18:45.265Z,339.33
2019-02-27T08:21:47.282Z,213.77
2019-02-27T08:24:49.299Z,266.43
2019-02-27T08:27:51.674Z,242.47
2019-02-27T08:30:53.571Z,285.33
2019-02-27T08:33:55.505Z,292.37
2019-02-27T08:36:57.468Z,254.47
2019-02-27T08:39:59.404Z,210.03
2019-02-27T08:43:01.270Z,207.90
2019-02-27T08:46:03.227Z,300.20
2019-02-27T08:49:05.149Z,171.47
2019-02-27T08:52:08.497Z,208.13
2019-02-27T08:55:19.800Z,156.60
2019-02-27T08:58:17.715Z,138.90
2019-02-27T09:01:21.759Z,171.83
2019-02-27T09:04:23.473Z,118.07
2019-02-27T09:07:25.411Z,120.77
2019-02-27T09:10:30.518Z,132.73
2019-02-27T09:13:31.130Z,122.07
2019-02-27T09:16:33.035Z,121.83
2019-02-27T09:19:34.960Z,127.30
2019-02-27T09:22:37.468Z,124.10
2019-02-27T09:25:40.150Z,120.70
2019-02-27T09:28:44.536Z,106.57
2019-02-27T09:31:50.718Z,110.10
2019-02-27T09:34:50.028Z,114.00
2019-02-27T09:37:52.119Z,112.17
2019-02-27T09:40:54.134Z,119.33
2019-02-27T09:43:58.634Z,118.73
2019-02-27T09:46:59.966Z,126.90
2019-02-27T09:50:01.827Z,126.70
2019-02-27T09:53:04.437Z,111.33
2019-02-27T09:56:06.525Z,116.67
2019-02-27T09:59:08.439Z,123.80
2019-02-27T10:02:12.450Z,115.43
2019-02-27T10:05:14.176Z,115.53
2019-02-27T10:08:16.238Z,105.23
2019-02-27T10:11:19.550Z,104.00
2019-02-27T10:14:21.896Z,112.20
2019-02-27T10:17:23.794Z,104.20
2019-02-27T10:20:25.775Z,98.57
2019-02-27T10:23:30.450Z,88.20
2019-02-27T10:26:31.721Z,87.70
2019-02-27T10:29:34.639Z,73.10
2019-02-27T10:32:37.254Z,74.07
2019-02-27T10:35:39.198Z,53.47
2019-02-27T10:38:41.985Z,38.30
2019-02-27T10:41:44.907Z,38.63
2019-02-27T10:44:47.069Z,36.30
2019-02-27T10:47:49.034Z,39.37
2019-02-27T10:50:51.007Z,38.57
2019-02-27T10:53:52.993Z,29.53
2019-02-27T10:56:56.350Z,36.77
2019-02-27T10:59:58.858Z,29.03
2019-02-27T11:03:00.829Z,22.60
2019-02-27T11:06:02.763Z,19.63
2019-02-27T11:09:07.516Z,23.03
2019-02-27T11:12:11.283Z,15.10
2019-02-27T11:15:23.372Z,16.13
2019-02-27T11:18:25.332Z,12.93
2019-02-27T11:21:27.257Z,12.10
2019-02-27T11:24:29.178Z,14.57
2019-02-27T11:27:31.132Z,13.20
2019-02-27T11:30:40.739Z,13.17
2019-02-27T11:33:42.657Z,10.63
2019-02-27T11:36:44.676Z,9.13
2019-02-27T11:39:46.543Z,9.27
2019-02-27T11:42:48.443Z,9.80
2019-02-27T11:45:50.434Z,8.20
2019-02-27T11:48:52.347Z,9.07
2019-02-27T11:51:56.997Z,8.13
2019-02-27T11:54:59.466Z,7.13
2019-02-27T11:58:05.319Z,8.20
2019-02-27T12:01:06.607Z,8.90
2019-02-27T12:04:08.563Z,9.57
2019-02-27T12:07:12.241Z,9.77
2019-02-27T12:10:16.410Z,11.40
2019-02-27T12:13:18.340Z,8.13
2019-02-27T12:16:20.248Z,11.30
2019-02-27T12:19:22.170Z,9.13
2019-02-27T12:22:24.120Z,10.80
2019-02-27T12:25:28.964Z,8.60
2019-02-27T12:28:29.876Z,10.63
2019-02-27T12:31:31.788Z,10.40
2019-02-27T12:34:34.074Z,11.10
2019-02-27T12:37:37.766Z,7.17
2019-02-27T12:40:39.693Z,8.87
2019-02-27T12:43:42.407Z,7.20
2019-02-27T12:46:45.331Z,6.07
2019-02-27T12:49:47.350Z,4.23
2019-02-27T12:52:49.557Z,8.40
2019-02-27T12:55:51.645Z,4.03
2019-02-27T12:58:58.352Z,8.87
2019-02-27T13:01:57.480Z,5.87
2019-02-27T13:04:59.417Z,5.90
2019-02-27T13:08:01.547Z,5.10
2019-02-27T13:11:05.236Z,4.27
2019-02-27T13:14:07.478Z,8.27
2019-02-27T13:17:09.441Z,3.73
2019-02-27T13:20:17.019Z,3.53
2019-02-27T13:23:20.514Z,5.23
2019-02-27T13:26:22.461Z,5.97
2019-02-27T13:29:24.453Z,9.27
2019-02-27T13:32:27.578Z,7.27
2019-02-27T13:35:29.729Z,5.90
2019-02-27T13:38:31.713Z,7.07
2019-02-27T13:41:33.660Z,5.13
2019-02-27T13:44:35.673Z,4.70
2019-02-27T13:47:37.596Z,3.20
2019-02-27T13:50:39.609Z,4.30
2019-02-27T13:53:41.555Z,5.20
2019-02-27T13:56:43.569Z,4.07
2019-02-27T13:59:45.639Z,4.70
2019-02-27T14:02:47.798Z,7.27
2019-02-27T14:05:49.755Z,4.90
2019-02-27T14:08:51.605Z,5.03
2019-02-27T14:11:53.523Z,3.47
2019-02-27T14:14:55.941Z,8.63
2019-02-27T14:17:58.219Z,4.07
2019-02-27T14:21:01.644Z,3.67
2019-02-27T14:24:04.664Z,4.00
2019-02-27T14:27:06.752Z,3.77
2019-02-27T14:30:15.392Z,10.83
2019-02-27T14:33:19.394Z,8.37
2019-02-27T14:36:21.973Z,6.43
2019-02-27T14:39:23.992Z,5.50
2019-02-27T14:42:25.995Z,6.93
2019-02-27T14:45:27.890Z,4.73
2019-02-27T14:48:30.030Z,5.57
2019-02-27T14:51:31.953Z,7.83
2019-02-27T14:54:33.927Z,3.80
2019-02-27T14:57:37.326Z,6.03
2019-02-27T15:00:41.012Z,4.57
2019-02-27T15:03:43.206Z,7.37
2019-02-27T15:06:46.095Z,2.70
2019-02-27T15:09:48.289Z,5.27
2019-02-27T15:12:53.861Z,3.07
2019-02-27T15:15:54.052Z,6.57
2019-02-27T15:18:56.144Z,11.53
2019-02-27T15:21:58.061Z,10.53
2019-02-27T15:25:00.159Z,9.40
2019-02-27T15:28:02.313Z,7.17
2019-02-27T15:31:04.481Z,5.23
2019-02-27T15:34:11.760Z,5.77
2019-02-27T15:37:11.036Z,3.57
2019-02-27T15:40:15.724Z,6.30
2019-02-27T15:43:18.174Z,6.40
2019-02-27T15:46:21.937Z,7.17
2019-02-27T15:49:24.698Z,7.63
2019-02-27T15:52:26.741Z,4.70
2019-02-27T15:55:32.849Z,7.20
2019-02-27T15:58:32.887Z,5.00
2019-02-27T16:01:35.000Z,6.33
2019-02-27T16:04:36.900Z,8.40
2019-02-27T16:07:38.988Z,7.10
2019-02-27T16:10:43.666Z,12.30
2019-02-27T16:13:44.853Z,7.20
2019-02-27T16:16:47.626Z,13.37
2019-02-27T16:19:50.228Z,14.13
2019-02-27T16:22:52.139Z,10.13
2019-02-27T16:25:56.434Z,10.57
2019-02-27T16:28:58.096Z,16.33
2019-02-27T16:32:00.108Z,15.93
2019-02-27T16:35:07.899Z,12.07
2019-02-27T16:38:08.660Z,17.97
2019-02-27T16:41:11.276Z,35.00
2019-02-27T16:44:13.389Z,33.37
2019-02-27T16:47:19.419Z,47.10
2019-02-27T16:50:24.789Z,49.27
2019-02-27T16:53:26.680Z,56.87
2019-02-27T16:56:28.581Z,52.90
2019-02-27T16:59:30.615Z,52.13
2019-02-27T17:02:35.451Z,54.07
2019-02-27T17:05:36.397Z,46.63
2019-02-27T17:08:38.464Z,48.60
2019-02-27T17:11:40.430Z,44.20
2019-02-27T17:14:42.391Z,33.73
2019-02-27T17:17:44.333Z,31.53
2019-02-27T17:20:47.299Z,38.77
2019-02-27T17:23:49.524Z,52.60
2019-02-27T17:26:51.530Z,54.50
2019-02-27T17:29:53.644Z,57.17
2019-02-27T17:32:56.516Z,49.33
2019-02-27T17:35:59.320Z,45.83
2019-02-27T17:39:01.989Z,44.23
2019-02-27T17:42:06.287Z,38.80
2019-02-27T17:45:14.582Z,40.67
2019-02-27T17:48:16.597Z,47.23
2019-02-27T17:51:18.624Z,44.63
2019-02-27T17:54:22.349Z,51.10
2019-02-27T17:57:28.016Z,59.03
2019-02-27T18:00:32.184Z,61.57
2019-02-27T18:03:36.632Z,55.73
2019-02-27T18:06:38.119Z,58.80
2019-02-27T18:09:42.984Z,61.10
2019-02-27T18:12:44.929Z,65.13
2019-02-27T18:15:46.894Z,76.07
2019-02-27T18:18:51.282Z,79.00
2019-02-27T18:21:53.205Z,79.77
2019-02-27T18:24:55.192Z,86.87
2019-02-27T18:27:59.589Z,84.90
2019-02-27T18:31:05.193Z,79.90
2019-02-27T18:34:07.303Z,73.17
2019-02-27T18:37:09.282Z,79.77
2019-02-27T18:40:18.220Z,74.27
2019-02-27T18:43:20.162Z,71.70
2019-02-27T18:46:24.854Z,70.13
2019-02-27T18:49:27.085Z,77.60
2019-02-27T18:52:29.024Z,75.13
2019-02-27T18:55:32.182Z,70.07
2019-02-27T18:58:35.781Z,75.30
2019-02-27T19:01:37.873Z,72.90
2019-02-27T19:04:39.876Z,70.67
2019-02-27T19:07:44.377Z,73.27
2019-02-27T19:10:46.375Z,74.80
2019-02-27T19:13:48.331Z,86.33
2019-02-27T19:16:52.110Z,82.30
2019-02-27T19:19:55.698Z,86.97
2019-02-27T19:23:00.349Z,84.67
2019-02-27T19:26:02.678Z,83.63
2019-02-27T19:29:05.845Z,81.90
2019-02-27T19:32:09.259Z,77.60
2019-02-27T19:35:11.651Z,80.37
2019-02-27T19:38:13.873Z,80.90
2019-02-27T19:41:22.675Z,82.20
2019-02-27T19:44:29.249Z,76.47
2019-02-27T19:47:34.105Z,78.97
2019-02-27T19:50:37.217Z,75.40
2019-02-27T19:53:39.625Z,75.27
2019-02-27T19:56:43.955Z,68.10
2019-02-27T19:59:46.075Z,69.93
2019-02-27T20:02:48.260Z,74.70
2019-02-27T20:05:53.260Z,77.60
2019-02-27T20:08:56.092Z,73.63
2019-02-27T20:11:59.324Z,76.30
2019-02-27T20:15:08.342Z,72.43
2019-02-27T20:18:13.984Z,73.13
2019-02-27T20:21:19.692Z,77.53
2019-02-27T20:24:21.596Z,72.87
2019-02-27T20:27:25.887Z,82.43
2019-02-27T20:30:30.156Z,87.90
2019-02-27T20:33:34.261Z,111.80
2019-02-27T20:36:35.996Z,128.20
2019-02-27T20:39:39.772Z,136.10
2019-02-27T20:42:50.041Z,133.43
2019-02-27T20:45:50.073Z,131.30
2019-02-27T20:48:52.618Z,121.80
2019-02-27T20:51:54.607Z,114.43
2019-02-27T20:54:58.919Z,86.60
2019-02-27T20:58:02.230Z,85.83
2019-02-27T21:01:10.030Z,90.10
2019-02-27T21:04:11.350Z,85.17
2019-02-27T21:07:21.885Z,78.33
2019-02-27T21:10:25.117Z,78.90
2019-02-27T21:13:28.640Z,97.60
2019-02-27T21:16:30.663Z,90.03
2019-02-27T21:19:33.844Z,94.73
2019-02-27T21:22:36.429Z,91.93
2019-02-27T21:25:38.435Z,82.57
2019-02-27T21:28:40.507Z,86.80
2019-02-27T21:31:42.423Z,76.43
2019-02-27T21:34:44.393Z,79.53
2019-02-27T21:37:50.852Z,87.70
2019-02-27T21:40:53.540Z,82.17
2019-02-27T21:43:56.651Z,79.57
2019-02-27T21:46:59.402Z,80.90
2019-02-27T21:50:03.667Z,79.07
2019-02-27T21:53:06.360Z,77.53
2019-02-27T21:56:08.202Z,70.33
2019-02-27T21:59:10.149Z,77.50
2019-02-27T22:02:12.056Z,78.87
2019-02-27T22:05:18.500Z,85.80
2019-02-27T22:08:17.998Z,81.10
2019-02-27T22:11:20.009Z,81.43
2019-02-27T22:14:24.951Z,79.07
2019-02-27T22:17:26.982Z,80.80
2019-02-27T22:20:28.867Z,72.87
2019-02-27T22:23:30.769Z,88.80
2019-02-27T22:26:34.175Z,88.73
2019-02-27T22:29:36.614Z,79.90
2019-02-27T22:32:38.559Z,94.47
2019-02-27T22:35:40.495Z,88.97
2019-02-27T22:38:42.446Z,80.63
2019-02-27T22:41:44.373Z,76.17
2019-02-27T22:44:48.157Z,76.73
2019-02-27T22:47:50.294Z,86.17
2019-02-27T22:50:53.327Z,77.50
2019-02-27T22:53:55.219Z,76.90
2019-02-27T22:56:57.174Z,74.20
2019-02-27T22:59:59.064Z,77.10
2019-02-27T23:03:01.127Z,68.83
2019-02-27T23:06:04.292Z,64.63
2019-02-27T23:09:08.224Z,68.00
2019-02-27T23:12:10.939Z,64.07
2019-02-27T23:15:13.119Z,72.53
2019-02-27T23:18:15.133Z,68.53
2019-02-27T23:21:17.373Z,74.83
2019-02-27T23:24:19.305Z,70.70
2019-02-27T23:27:21.304Z,71.27
2019-02-27T23:30:23.212Z,73.77
2019-02-27T23:33:25.069Z,72.67
2019-02-27T23:36:27.019Z,80.10
2019-02-27T23:39:28.995Z,71.23
2019-02-27T23:42:31.796Z,66.90
2019-02-27T23:45:33.722Z,78.80
2019-02-27T23:48:36.741Z,72.80
2019-02-27T23:51:38.908Z,70.60
2019-02-27T23:54:40.903Z,59.73
2019-02-27T23:57:42.885Z,63.47
